sensor_id;sensor_type;location;lat;lon;timestamp;temperature;humidity
54260;DHT22;40172;53.022;7.012;2022-07-29T00:01:51;13.40;99.90
54260;DHT22;40172;53.022;7.012;2022-07-29T00:04:18;13.40;99.90
54260;DHT22;40172;53.022;7.012;2022-07-29T00:06:44;13.90;99.90
54260;DHT22;40172;53.022;7.012;2022-07-29T00:09:10;13.40;99.90
54260;DHT22;40172;53.022;7.012;2022-07-29T00:11:36;13.50;99.90
54260;DHT22;40172;53.022;7.012;2022-07-29T00:14:01;13.40;99.90
54260;DHT22;40172;53.022;7.012;2022-07-29T00:16:27;13.40;99.90
54260;DHT22;40172;53.022;7.012;2022-07-29T00:18:53;13.50;99.90
54260;DHT22;40172;53.022;7.012;2022-07-29T00:21:18;13.50;99.90
54260;DHT22;40172;53.022;7.012;2022-07-29T00:23:44;13.50;99.90
54260;DHT22;40172;53.022;7.012;2022-07-29T00:26:10;13.50;99.90
54260;DHT22;40172;53.022;7.012;2022-07-29T00:28:35;13.60;99.90
54260;DHT22;40172;53.022;7.012;2022-07-29T00:31:01;13.50;99.90
54260;DHT22;40172;53.022;7.012;2022-07-29T00:33:27;13.50;99.90
54260;DHT22;40172;53.022;7.012;2022-07-29T00:35:53;13.50;99.90
54260;DHT22;40172;53.022;7.012;2022-07-29T00:38:19;13.50;99.90
54260;DHT22;40172;53.022;7.012;2022-07-29T00:40:45;13.90;99.90
54260;DHT22;40172;53.022;7.012;2022-07-29T00:43:12;13.80;99.90
54260;DHT22;40172;53.022;7.012;2022-07-29T00:45:39;13.50;99.90
54260;DHT22;40172;53.022;7.012;2022-07-29T00:48:06;13.50;99.90
54260;DHT22;40172;53.022;7.012;2022-07-29T00:50:32;13.50;99.90
54260;DHT22;40172;53.022;7.012;2022-07-29T00:52:58;13.50;99.90
54260;DHT22;40172;53.022;7.012;2022-07-29T00:55:24;13.40;99.90
54260;DHT22;40172;53.022;7.012;2022-07-29T00:57:50;13.40;99.90
54260;DHT22;40172;53.022;7.012;2022-07-29T01:00:21;13.50;99.90
54260;DHT22;40172;53.022;7.012;2022-07-29T01:02:47;13.40;99.90
54260;DHT22;40172;53.022;7.012;2022-07-29T01:05:14;13.50;99.90
54260;DHT22;40172;53.022;7.012;2022-07-29T01:07:41;13.50;99.90
54260;DHT22;40172;53.022;7.012;2022-07-29T01:10:09;13.50;99.90
54260;DHT22;40172;53.022;7.012;2022-07-29T01:12:36;13.50;99.90
54260;DHT22;40172;53.022;7.012;2022-07-29T01:15:04;13.50;99.90
54260;DHT22;40172;53.022;7.012;2022-07-29T01:18:27;13.50;99.90
54260;DHT22;40172;53.022;7.012;2022-07-29T01:23:39;14.00;99.90
54260;DHT22;40172;53.022;7.012;2022-07-29T01:26:28;13.50;99.90
54260;DHT22;40172;53.022;7.012;2022-07-29T01:29:24;13.50;99.90
54260;DHT22;40172;53.022;7.012;2022-07-29T01:37:24;13.50;99.90
54260;DHT22;40172;53.022;7.012;2022-07-29T01:39:54;13.60;99.90
54260;DHT22;40172;53.022;7.012;2022-07-29T01:42:36;13.60;99.90
54260;DHT22;40172;53.022;7.012;2022-07-29T01:45:23;13.60;99.90
54260;DHT22;40172;53.022;7.012;2022-07-29T01:48:13;13.60;99.90
54260;DHT22;40172;53.022;7.012;2022-07-29T01:50:47;13.60;99.90
54260;DHT22;40172;53.022;7.012;2022-07-29T01:53:18;13.60;99.90
54260;DHT22;40172;53.022;7.012;2022-07-29T01:55:47;13.70;99.90
54260;DHT22;40172;53.022;7.012;2022-07-29T01:58:14;13.60;99.90
54260;DHT22;40172;53.022;7.012;2022-07-29T02:00:44;13.90;99.90
54260;DHT22;40172;53.022;7.012;2022-07-29T02:03:12;13.60;99.90
54260;DHT22;40172;53.022;7.012;2022-07-29T02:05:41;13.70;99.90
54260;DHT22;40172;53.022;7.012;2022-07-29T02:08:08;13.70;99.90
54260;DHT22;40172;53.022;7.012;2022-07-29T02:10:35;13.70;99.90
54260;DHT22;40172;53.022;7.012;2022-07-29T02:13:04;13.70;99.90
54260;DHT22;40172;53.022;7.012;2022-07-29T02:15:33;13.70;99.90
54260;DHT22;40172;53.022;7.012;2022-07-29T02:18:08;13.70;99.90
54260;DHT22;40172;53.022;7.012;2022-07-29T02:20:36;13.70;99.90
54260;DHT22;40172;53.022;7.012;2022-07-29T02:23:03;13.70;99.90
54260;DHT22;40172;53.022;7.012;2022-07-29T02:25:29;13.70;99.90
54260;DHT22;40172;53.022;7.012;2022-07-29T02:27:56;13.70;99.90
54260;DHT22;40172;53.022;7.012;2022-07-29T02:30:24;13.70;99.90
54260;DHT22;40172;53.022;7.012;2022-07-29T02:32:51;13.70;99.90
54260;DHT22;40172;53.022;7.012;2022-07-29T02:35:21;13.70;99.90
54260;DHT22;40172;53.022;7.012;2022-07-29T02:37:47;13.80;99.90
54260;DHT22;40172;53.022;7.012;2022-07-29T02:40:35;13.80;99.90
54260;DHT22;40172;53.022;7.012;2022-07-29T02:43:05;13.80;99.90
54260;DHT22;40172;53.022;7.012;2022-07-29T02:45:32;13.80;99.90
54260;DHT22;40172;53.022;7.012;2022-07-29T02:48:00;14.00;99.90
54260;DHT22;40172;53.022;7.012;2022-07-29T02:50:32;13.70;99.90
54260;DHT22;40172;53.022;7.012;2022-07-29T02:53:09;13.70;99.90
54260;DHT22;40172;53.022;7.012;2022-07-29T02:55:45;13.70;99.90
54260;DHT22;40172;53.022;7.012;2022-07-29T02:58:33;13.90;99.90
54260;DHT22;40172;53.022;7.012;2022-07-29T03:01:15;13.80;99.90
54260;DHT22;40172;53.022;7.012;2022-07-29T03:03:44;13.70;99.90
54260;DHT22;40172;53.022;7.012;2022-07-29T03:06:13;14.00;99.90
54260;DHT22;40172;53.022;7.012;2022-07-29T03:08:40;14.20;99.90
54260;DHT22;40172;53.022;7.012;2022-07-29T03:11:07;13.80;99.90
54260;DHT22;40172;53.022;7.012;2022-07-29T03:13:35;13.80;99.90
54260;DHT22;40172;53.022;7.012;2022-07-29T03:16:01;13.80;99.90
54260;DHT22;40172;53.022;7.012;2022-07-29T03:18:28;13.80;99.90
54260;DHT22;40172;53.022;7.012;2022-07-29T03:20:54;13.80;99.90
54260;DHT22;40172;53.022;7.012;2022-07-29T03:23:21;13.80;99.90
54260;DHT22;40172;53.022;7.012;2022-07-29T03:25:51;13.80;99.90
54260;DHT22;40172;53.022;7.012;2022-07-29T03:28:17;13.80;99.90
54260;DHT22;40172;53.022;7.012;2022-07-29T03:30:43;13.80;99.90
54260;DHT22;40172;53.022;7.012;2022-07-29T03:33:08;13.80;99.90
54260;DHT22;40172;53.022;7.012;2022-07-29T03:35:34;13.80;99.90
54260;DHT22;40172;53.022;7.012;2022-07-29T03:38:00;13.90;99.90
54260;DHT22;40172;53.022;7.012;2022-07-29T03:40:35;13.90;99.90
54260;DHT22;40172;53.022;7.012;2022-07-29T03:43:04;13.90;99.90
54260;DHT22;40172;53.022;7.012;2022-07-29T03:45:32;14.20;99.90
54260;DHT22;40172;53.022;7.012;2022-07-29T03:48:02;13.90;99.90
54260;DHT22;40172;53.022;7.012;2022-07-29T03:50:31;13.90;99.90
54260;DHT22;40172;53.022;7.012;2022-07-29T03:52:58;13.90;99.90
54260;DHT22;40172;53.022;7.012;2022-07-29T03:55:25;13.90;99.90
54260;DHT22;40172;53.022;7.012;2022-07-29T03:57:51;13.90;99.90
54260;DHT22;40172;53.022;7.012;2022-07-29T04:00:17;13.90;99.90
54260;DHT22;40172;53.022;7.012;2022-07-29T04:02:43;13.90;99.90
54260;DHT22;40172;53.022;7.012;2022-07-29T04:05:14;13.90;99.90
54260;DHT22;40172;53.022;7.012;2022-07-29T04:07:44;14.00;99.90
54260;DHT22;40172;53.022;7.012;2022-07-29T04:10:10;14.00;99.90
54260;DHT22;40172;53.022;7.012;2022-07-29T04:12:36;13.90;99.90
54260;DHT22;40172;53.022;7.012;2022-07-29T04:15:05;14.00;99.90
54260;DHT22;40172;53.022;7.012;2022-07-29T04:17:30;14.10;99.90
54260;DHT22;40172;53.022;7.012;2022-07-29T04:19:56;14.20;99.90
54260;DHT22;40172;53.022;7.012;2022-07-29T04:22:22;14.10;99.90
54260;DHT22;40172;53.022;7.012;2022-07-29T04:24:47;14.10;99.90
54260;DHT22;40172;53.022;7.012;2022-07-29T04:27:13;14.10;99.90
54260;DHT22;40172;53.022;7.012;2022-07-29T04:29:39;14.20;99.90
54260;DHT22;40172;53.022;7.012;2022-07-29T04:32:05;14.10;99.90
54260;DHT22;40172;53.022;7.012;2022-07-29T04:34:30;14.10;99.90
54260;DHT22;40172;53.022;7.012;2022-07-29T04:36:56;14.10;99.90
54260;DHT22;40172;53.022;7.012;2022-07-29T04:39:22;14.10;99.90
54260;DHT22;40172;53.022;7.012;2022-07-29T04:41:47;14.10;99.90
54260;DHT22;40172;53.022;7.012;2022-07-29T04:44:13;14.10;99.90
54260;DHT22;40172;53.022;7.012;2022-07-29T04:46:39;14.10;99.90
54260;DHT22;40172;53.022;7.012;2022-07-29T04:49:04;14.10;99.90
54260;DHT22;40172;53.022;7.012;2022-07-29T04:51:30;14.10;99.90
54260;DHT22;40172;53.022;7.012;2022-07-29T04:53:56;14.10;99.90
54260;DHT22;40172;53.022;7.012;2022-07-29T04:56:22;14.20;99.90
54260;DHT22;40172;53.022;7.012;2022-07-29T04:58:47;14.20;99.90
54260;DHT22;40172;53.022;7.012;2022-07-29T05:01:13;14.20;99.90
54260;DHT22;40172;53.022;7.012;2022-07-29T05:03:40;14.20;99.90
54260;DHT22;40172;53.022;7.012;2022-07-29T05:06:05;14.20;99.90
54260;DHT22;40172;53.022;7.012;2022-07-29T05:08:31;14.30;99.90
54260;DHT22;40172;53.022;7.012;2022-07-29T05:10:56;14.30;99.90
54260;DHT22;40172;53.022;7.012;2022-07-29T05:13:22;14.30;99.90
54260;DHT22;40172;53.022;7.012;2022-07-29T05:15:48;14.40;99.90
54260;DHT22;40172;53.022;7.012;2022-07-29T05:18:13;14.50;99.90
54260;DHT22;40172;53.022;7.012;2022-07-29T05:20:39;14.50;99.90
54260;DHT22;40172;53.022;7.012;2022-07-29T05:23:05;14.60;99.90
54260;DHT22;40172;53.022;7.012;2022-07-29T05:25:30;14.60;99.90
54260;DHT22;40172;53.022;7.012;2022-07-29T05:27:56;14.70;99.90
54260;DHT22;40172;53.022;7.012;2022-07-29T05:30:22;14.80;99.90
54260;DHT22;40172;53.022;7.012;2022-07-29T05:32:48;14.90;99.90
54260;DHT22;40172;53.022;7.012;2022-07-29T05:35:14;14.90;99.90
54260;DHT22;40172;53.022;7.012;2022-07-29T05:37:40;15.10;99.90
54260;DHT22;40172;53.022;7.012;2022-07-29T05:40:06;15.30;99.90
54260;DHT22;40172;53.022;7.012;2022-07-29T05:42:32;15.20;99.90
54260;DHT22;40172;53.022;7.012;2022-07-29T05:44:59;15.30;99.90
54260;DHT22;40172;53.022;7.012;2022-07-29T05:47:25;15.20;99.90
54260;DHT22;40172;53.022;7.012;2022-07-29T05:49:51;15.20;99.90
54260;DHT22;40172;53.022;7.012;2022-07-29T05:52:17;15.30;99.90
54260;DHT22;40172;53.022;7.012;2022-07-29T05:54:43;15.30;99.90
54260;DHT22;40172;53.022;7.012;2022-07-29T05:57:15;15.30;99.90
54260;DHT22;40172;53.022;7.012;2022-07-29T05:59:41;15.30;99.90
54260;DHT22;40172;53.022;7.012;2022-07-29T06:02:07;15.30;99.90
54260;DHT22;40172;53.022;7.012;2022-07-29T06:04:33;15.30;99.90
54260;DHT22;40172;53.022;7.012;2022-07-29T06:06:58;15.90;99.90
54260;DHT22;40172;53.022;7.012;2022-07-29T06:09:24;15.30;99.90
54260;DHT22;40172;53.022;7.012;2022-07-29T06:11:51;15.40;99.90
54260;DHT22;40172;53.022;7.012;2022-07-29T06:14:17;15.40;99.90
54260;DHT22;40172;53.022;7.012;2022-07-29T06:16:43;15.50;99.90
54260;DHT22;40172;53.022;7.012;2022-07-29T06:19:08;15.50;99.90
54260;DHT22;40172;53.022;7.012;2022-07-29T06:21:34;15.50;99.90
54260;DHT22;40172;53.022;7.012;2022-07-29T06:24:00;15.50;99.90
54260;DHT22;40172;53.022;7.012;2022-07-29T06:26:25;15.60;99.90
54260;DHT22;40172;53.022;7.012;2022-07-29T06:28:51;15.50;99.90
54260;DHT22;40172;53.022;7.012;2022-07-29T06:31:16;15.60;99.90
54260;DHT22;40172;53.022;7.012;2022-07-29T06:33:42;15.60;99.90
54260;DHT22;40172;53.022;7.012;2022-07-29T06:36:08;15.60;99.90
54260;DHT22;40172;53.022;7.012;2022-07-29T06:38:33;15.70;99.90
54260;DHT22;40172;53.022;7.012;2022-07-29T06:41:00;15.70;99.90
54260;DHT22;40172;53.022;7.012;2022-07-29T06:43:36;15.70;99.90
54260;DHT22;40172;53.022;7.012;2022-07-29T06:46:16;15.80;99.90
54260;DHT22;40172;53.022;7.012;2022-07-29T06:48:45;15.80;99.90
54260;DHT22;40172;53.022;7.012;2022-07-29T06:51:11;15.90;99.90
54260;DHT22;40172;53.022;7.012;2022-07-29T06:53:38;15.90;99.90
54260;DHT22;40172;53.022;7.012;2022-07-29T06:56:05;15.90;99.90
54260;DHT22;40172;53.022;7.012;2022-07-29T06:58:31;16.00;99.90
54260;DHT22;40172;53.022;7.012;2022-07-29T07:00:58;16.00;99.90
54260;DHT22;40172;53.022;7.012;2022-07-29T07:03:26;16.00;99.90
54260;DHT22;40172;53.022;7.012;2022-07-29T07:05:52;16.10;99.90
54260;DHT22;40172;53.022;7.012;2022-07-29T07:08:18;16.10;99.90
54260;DHT22;40172;53.022;7.012;2022-07-29T07:10:45;16.10;99.90
54260;DHT22;40172;53.022;7.012;2022-07-29T07:13:11;16.10;99.90
54260;DHT22;40172;53.022;7.012;2022-07-29T07:15:37;16.20;99.90
54260;DHT22;40172;53.022;7.012;2022-07-29T07:18:04;16.30;99.90
54260;DHT22;40172;53.022;7.012;2022-07-29T07:20:31;16.40;99.90
54260;DHT22;40172;53.022;7.012;2022-07-29T07:22:57;16.50;99.90
54260;DHT22;40172;53.022;7.012;2022-07-29T07:25:23;16.50;99.90
54260;DHT22;40172;53.022;7.012;2022-07-29T07:27:48;16.70;99.90
54260;DHT22;40172;53.022;7.012;2022-07-29T07:30:14;16.80;99.90
54260;DHT22;40172;53.022;7.012;2022-07-29T07:32:40;16.90;99.90
54260;DHT22;40172;53.022;7.012;2022-07-29T07:35:07;16.90;99.90
54260;DHT22;40172;53.022;7.012;2022-07-29T07:37:33;17.00;99.90
54260;DHT22;40172;53.022;7.012;2022-07-29T07:39:59;17.00;99.90
54260;DHT22;40172;53.022;7.012;2022-07-29T07:42:26;17.10;99.90
54260;DHT22;40172;53.022;7.012;2022-07-29T07:44:52;17.10;99.90
54260;DHT22;40172;53.022;7.012;2022-07-29T07:47:18;17.20;99.90
54260;DHT22;40172;53.022;7.012;2022-07-29T07:49:48;17.20;99.90
54260;DHT22;40172;53.022;7.012;2022-07-29T07:52:15;17.20;99.90
54260;DHT22;40172;53.022;7.012;2022-07-29T07:54:42;17.30;99.90
54260;DHT22;40172;53.022;7.012;2022-07-29T07:57:09;17.40;99.90
54260;DHT22;40172;53.022;7.012;2022-07-29T07:59:35;17.40;99.90
54260;DHT22;40172;53.022;7.012;2022-07-29T08:02:00;17.40;99.90
54260;DHT22;40172;53.022;7.012;2022-07-29T08:04:26;17.50;99.90
54260;DHT22;40172;53.022;7.012;2022-07-29T08:06:52;17.60;99.90
54260;DHT22;40172;53.022;7.012;2022-07-29T08:09:20;17.60;99.90
54260;DHT22;40172;53.022;7.012;2022-07-29T08:11:46;17.70;99.90
54260;DHT22;40172;53.022;7.012;2022-07-29T08:14:11;17.70;99.90
54260;DHT22;40172;53.022;7.012;2022-07-29T08:16:39;17.80;99.90
54260;DHT22;40172;53.022;7.012;2022-07-29T08:19:05;17.90;99.90
54260;DHT22;40172;53.022;7.012;2022-07-29T08:21:31;18.00;99.90
54260;DHT22;40172;53.022;7.012;2022-07-29T08:23:56;18.10;99.90
54260;DHT22;40172;53.022;7.012;2022-07-29T08:26:42;18.30;99.90
54260;DHT22;40172;53.022;7.012;2022-07-29T08:29:07;18.10;99.90
54260;DHT22;40172;53.022;7.012;2022-07-29T08:31:33;18.50;99.90
54260;DHT22;40172;53.022;7.012;2022-07-29T08:33:58;18.60;99.90
54260;DHT22;40172;53.022;7.012;2022-07-29T08:36:25;18.70;99.90
54260;DHT22;40172;53.022;7.012;2022-07-29T08:38:51;18.80;99.90
54260;DHT22;40172;53.022;7.012;2022-07-29T08:41:18;18.80;99.90
54260;DHT22;40172;53.022;7.012;2022-07-29T08:43:44;18.90;99.90
54260;DHT22;40172;53.022;7.012;2022-07-29T08:46:10;19.00;99.90
54260;DHT22;40172;53.022;7.012;2022-07-29T08:48:36;19.00;99.90
54260;DHT22;40172;53.022;7.012;2022-07-29T08:51:02;19.00;99.90
54260;DHT22;40172;53.022;7.012;2022-07-29T08:53:28;19.00;99.90
54260;DHT22;40172;53.022;7.012;2022-07-29T08:55:54;19.10;99.90
54260;DHT22;40172;53.022;7.012;2022-07-29T08:58:21;19.10;99.90
54260;DHT22;40172;53.022;7.012;2022-07-29T09:00:51;19.10;99.90
54260;DHT22;40172;53.022;7.012;2022-07-29T09:03:22;19.20;99.90
54260;DHT22;40172;53.022;7.012;2022-07-29T09:05:49;19.20;99.90
54260;DHT22;40172;53.022;7.012;2022-07-29T09:08:16;19.40;99.90
54260;DHT22;40172;53.022;7.012;2022-07-29T09:10:43;19.50;99.90
54260;DHT22;40172;53.022;7.012;2022-07-29T09:13:09;19.50;99.90
54260;DHT22;40172;53.022;7.012;2022-07-29T09:15:35;19.50;99.90
54260;DHT22;40172;53.022;7.012;2022-07-29T09:18:00;19.50;99.90
54260;DHT22;40172;53.022;7.012;2022-07-29T09:20:27;19.50;99.90
54260;DHT22;40172;53.022;7.012;2022-07-29T09:23:13;19.60;99.90
54260;DHT22;40172;53.022;7.012;2022-07-29T09:25:40;19.60;99.90
54260;DHT22;40172;53.022;7.012;2022-07-29T09:28:07;19.60;99.90
54260;DHT22;40172;53.022;7.012;2022-07-29T09:30:33;19.60;99.90
54260;DHT22;40172;53.022;7.012;2022-07-29T09:33:01;19.60;99.90
54260;DHT22;40172;53.022;7.012;2022-07-29T09:35:29;19.70;99.90
54260;DHT22;40172;53.022;7.012;2022-07-29T09:37:56;19.80;99.90
54260;DHT22;40172;53.022;7.012;2022-07-29T09:40:24;19.90;99.90
54260;DHT22;40172;53.022;7.012;2022-07-29T09:42:51;20.00;99.90
54260;DHT22;40172;53.022;7.012;2022-07-29T09:45:33;20.20;99.90
54260;DHT22;40172;53.022;7.012;2022-07-29T09:48:12;20.30;99.90
54260;DHT22;40172;53.022;7.012;2022-07-29T09:50:39;20.40;99.90
54260;DHT22;40172;53.022;7.012;2022-07-29T09:53:05;20.50;99.90
54260;DHT22;40172;53.022;7.012;2022-07-29T09:55:31;20.70;99.90
54260;DHT22;40172;53.022;7.012;2022-07-29T09:58:16;20.80;99.90
54260;DHT22;40172;53.022;7.012;2022-07-29T10:00:42;20.90;99.90
54260;DHT22;40172;53.022;7.012;2022-07-29T10:03:08;21.00;99.90
54260;DHT22;40172;53.022;7.012;2022-07-29T10:05:33;21.10;99.90
54260;DHT22;40172;53.022;7.012;2022-07-29T10:07:59;21.20;99.90
54260;DHT22;40172;53.022;7.012;2022-07-29T10:10:33;21.20;99.90
54260;DHT22;40172;53.022;7.012;2022-07-29T10:13:19;21.30;99.90
54260;DHT22;40172;53.022;7.012;2022-07-29T10:15:45;21.40;99.90
54260;DHT22;40172;53.022;7.012;2022-07-29T10:18:12;21.40;99.90
54260;DHT22;40172;53.022;7.012;2022-07-29T10:20:38;21.50;99.90
54260;DHT22;40172;53.022;7.012;2022-07-29T10:23:05;21.50;99.90
54260;DHT22;40172;53.022;7.012;2022-07-29T10:25:31;21.70;99.90
54260;DHT22;40172;53.022;7.012;2022-07-29T10:27:57;21.90;99.90
54260;DHT22;40172;53.022;7.012;2022-07-29T10:30:25;22.00;99.90
54260;DHT22;40172;53.022;7.012;2022-07-29T10:33:16;22.00;99.90
54260;DHT22;40172;53.022;7.012;2022-07-29T10:41:39;22.20;99.90
54260;DHT22;40172;53.022;7.012;2022-07-29T10:44:24;22.30;99.50
54260;DHT22;40172;53.022;7.012;2022-07-29T10:46:51;22.40;99.70
54260;DHT22;40172;53.022;7.012;2022-07-29T10:49:22;22.40;99.20
54260;DHT22;40172;53.022;7.012;2022-07-29T10:59:50;22.60;99.10
54260;DHT22;40172;53.022;7.012;2022-07-29T11:05:05;22.90;99.80
54260;DHT22;40172;53.022;7.012;2022-07-29T11:07:32;23.00;98.60
54260;DHT22;40172;53.022;7.012;2022-07-29T11:15:17;23.10;98.00
54260;DHT22;40172;53.022;7.012;2022-07-29T11:20:43;22.90;97.40
54260;DHT22;40172;53.022;7.012;2022-07-29T11:28:50;22.60;98.00
54260;DHT22;40172;53.022;7.012;2022-07-29T11:31:41;22.60;99.00
54260;DHT22;40172;53.022;7.012;2022-07-29T11:34:27;22.60;99.50
54260;DHT22;40172;53.022;7.012;2022-07-29T11:39:39;22.70;99.00
54260;DHT22;40172;53.022;7.012;2022-07-29T11:47:27;23.00;98.70
54260;DHT22;40172;53.022;7.012;2022-07-29T11:49:55;23.00;98.80
54260;DHT22;40172;53.022;7.012;2022-07-29T11:52:23;23.00;98.50
54260;DHT22;40172;53.022;7.012;2022-07-29T11:54:50;23.00;97.90
54260;DHT22;40172;53.022;7.012;2022-07-29T11:57:19;23.10;97.40
54260;DHT22;40172;53.022;7.012;2022-07-29T11:59:46;23.00;97.40
54260;DHT22;40172;53.022;7.012;2022-07-29T12:02:13;23.00;97.50
54260;DHT22;40172;53.022;7.012;2022-07-29T12:04:53;23.00;98.60
54260;DHT22;40172;53.022;7.012;2022-07-29T12:07:27;23.00;99.20
54260;DHT22;40172;53.022;7.012;2022-07-29T12:09:53;22.90;99.70
54260;DHT22;40172;53.022;7.012;2022-07-29T12:12:20;22.80;99.70
54260;DHT22;40172;53.022;7.012;2022-07-29T12:14:45;22.80;99.90
54260;DHT22;40172;53.022;7.012;2022-07-29T12:17:31;22.80;99.90
54260;DHT22;40172;53.022;7.012;2022-07-29T12:20:01;22.70;99.90
54260;DHT22;40172;53.022;7.012;2022-07-29T12:22:46;22.80;99.90
54260;DHT22;40172;53.022;7.012;2022-07-29T12:25:14;22.80;99.90
54260;DHT22;40172;53.022;7.012;2022-07-29T12:27:43;22.80;99.90
54260;DHT22;40172;53.022;7.012;2022-07-29T12:30:10;22.80;99.90
54260;DHT22;40172;53.022;7.012;2022-07-29T12:32:38;22.70;99.90
54260;DHT22;40172;53.022;7.012;2022-07-29T12:35:07;22.90;99.90
54260;DHT22;40172;53.022;7.012;2022-07-29T12:37:34;22.70;99.90
54260;DHT22;40172;53.022;7.012;2022-07-29T12:40:02;22.60;99.90
54260;DHT22;40172;53.022;7.012;2022-07-29T12:42:28;22.60;99.90
54260;DHT22;40172;53.022;7.012;2022-07-29T12:44:53;22.60;99.90
54260;DHT22;40172;53.022;7.012;2022-07-29T12:47:19;22.60;99.90
54260;DHT22;40172;53.022;7.012;2022-07-29T12:49:45;22.50;99.90
54260;DHT22;40172;53.022;7.012;2022-07-29T12:54:49;22.50;99.90
54260;DHT22;40172;53.022;7.012;2022-07-29T12:57:15;22.50;99.90
54260;DHT22;40172;53.022;7.012;2022-07-29T12:59:41;22.60;99.90
54260;DHT22;40172;53.022;7.012;2022-07-29T13:02:18;22.60;99.90
54260;DHT22;40172;53.022;7.012;2022-07-29T13:04:55;22.60;99.90
54260;DHT22;40172;53.022;7.012;2022-07-29T13:07:30;22.60;99.90
54260;DHT22;40172;53.022;7.012;2022-07-29T13:10:17;22.60;99.90
54260;DHT22;40172;53.022;7.012;2022-07-29T13:13:21;22.50;99.90
54260;DHT22;40172;53.022;7.012;2022-07-29T13:15:47;22.70;99.90
54260;DHT22;40172;53.022;7.012;2022-07-29T13:18:34;22.40;99.90
54260;DHT22;40172;53.022;7.012;2022-07-29T13:21:15;22.30;99.90
54260;DHT22;40172;53.022;7.012;2022-07-29T13:23:42;22.30;99.90
54260;DHT22;40172;53.022;7.012;2022-07-29T13:26:09;22.30;99.90
54260;DHT22;40172;53.022;7.012;2022-07-29T13:28:35;22.30;99.90
54260;DHT22;40172;53.022;7.012;2022-07-29T13:31:01;22.30;99.90
54260;DHT22;40172;53.022;7.012;2022-07-29T13:33:27;22.30;99.90
54260;DHT22;40172;53.022;7.012;2022-07-29T13:35:52;22.20;99.90
54260;DHT22;40172;53.022;7.012;2022-07-29T13:38:18;22.30;99.90
54260;DHT22;40172;53.022;7.012;2022-07-29T13:40:43;22.30;99.90
54260;DHT22;40172;53.022;7.012;2022-07-29T13:43:10;22.30;99.90
54260;DHT22;40172;53.022;7.012;2022-07-29T13:45:35;22.40;99.90
54260;DHT22;40172;53.022;7.012;2022-07-29T13:48:01;22.50;99.90
54260;DHT22;40172;53.022;7.012;2022-07-29T13:50:27;22.60;99.90
54260;DHT22;40172;53.022;7.012;2022-07-29T13:52:52;22.70;99.90
54260;DHT22;40172;53.022;7.012;2022-07-29T13:55:18;22.80;99.90
54260;DHT22;40172;53.022;7.012;2022-07-29T13:57:44;23.00;99.90
54260;DHT22;40172;53.022;7.012;2022-07-29T14:00:11;23.10;99.90
54260;DHT22;40172;53.022;7.012;2022-07-29T14:02:37;23.30;99.90
54260;DHT22;40172;53.022;7.012;2022-07-29T14:05:04;23.50;99.90
54260;DHT22;40172;53.022;7.012;2022-07-29T14:07:30;23.80;99.90
54260;DHT22;40172;53.022;7.012;2022-07-29T14:09:56;23.90;99.90
54260;DHT22;40172;53.022;7.012;2022-07-29T14:12:22;24.00;98.90
54260;DHT22;40172;53.022;7.012;2022-07-29T14:14:48;24.10;97.60
54260;DHT22;40172;53.022;7.012;2022-07-29T14:17:14;24.10;96.20
54260;DHT22;40172;53.022;7.012;2022-07-29T14:19:40;24.10;95.40
54260;DHT22;40172;53.022;7.012;2022-07-29T14:22:07;24.20;94.20
54260;DHT22;40172;53.022;7.012;2022-07-29T14:24:33;24.20;94.20
54260;DHT22;40172;53.022;7.012;2022-07-29T14:26:59;24.20;93.40
54260;DHT22;40172;53.022;7.012;2022-07-29T14:29:25;24.10;92.60
54260;DHT22;40172;53.022;7.012;2022-07-29T14:31:50;24.10;92.30
54260;DHT22;40172;53.022;7.012;2022-07-29T14:34:16;24.10;91.90
54260;DHT22;40172;53.022;7.012;2022-07-29T14:36:42;24.10;91.10
54260;DHT22;40172;53.022;7.012;2022-07-29T14:39:07;24.30;91.00
54260;DHT22;40172;53.022;7.012;2022-07-29T14:41:33;24.20;90.80
54260;DHT22;40172;53.022;7.012;2022-07-29T14:43:59;24.40;90.70
54260;DHT22;40172;53.022;7.012;2022-07-29T14:46:27;24.50;90.30
54260;DHT22;40172;53.022;7.012;2022-07-29T14:48:52;24.50;89.50
54260;DHT22;40172;53.022;7.012;2022-07-29T14:51:18;24.40;88.70
54260;DHT22;40172;53.022;7.012;2022-07-29T14:53:44;24.30;88.90
54260;DHT22;40172;53.022;7.012;2022-07-29T14:56:09;24.20;88.40
54260;DHT22;40172;53.022;7.012;2022-07-29T14:58:35;24.20;88.80
54260;DHT22;40172;53.022;7.012;2022-07-29T15:01:01;24.20;89.50
54260;DHT22;40172;53.022;7.012;2022-07-29T15:03:27;24.10;88.80
54260;DHT22;40172;53.022;7.012;2022-07-29T15:05:56;24.00;88.40
54260;DHT22;40172;53.022;7.012;2022-07-29T15:08:21;23.90;88.30
54260;DHT22;40172;53.022;7.012;2022-07-29T15:10:47;23.90;87.70
54260;DHT22;40172;53.022;7.012;2022-07-29T15:13:12;23.90;87.70
54260;DHT22;40172;53.022;7.012;2022-07-29T15:15:38;23.90;87.30
54260;DHT22;40172;53.022;7.012;2022-07-29T15:18:04;24.00;87.50
54260;DHT22;40172;53.022;7.012;2022-07-29T15:20:30;24.00;86.30
54260;DHT22;40172;53.022;7.012;2022-07-29T15:22:56;24.10;83.60
54260;DHT22;40172;53.022;7.012;2022-07-29T15:25:23;24.10;83.50
54260;DHT22;40172;53.022;7.012;2022-07-29T15:27:48;24.10;83.10
54260;DHT22;40172;53.022;7.012;2022-07-29T15:30:14;24.10;84.20
54260;DHT22;40172;53.022;7.012;2022-07-29T15:32:42;24.10;85.50
54260;DHT22;40172;53.022;7.012;2022-07-29T15:35:08;24.10;86.80
54260;DHT22;40172;53.022;7.012;2022-07-29T15:37:39;24.20;86.60
54260;DHT22;40172;53.022;7.012;2022-07-29T15:40:06;24.20;86.10
54260;DHT22;40172;53.022;7.012;2022-07-29T15:42:31;24.10;86.00
54260;DHT22;40172;53.022;7.012;2022-07-29T15:44:57;24.10;85.30
54260;DHT22;40172;53.022;7.012;2022-07-29T15:47:28;24.00;84.00
54260;DHT22;40172;53.022;7.012;2022-07-29T15:49:53;24.80;83.90
54260;DHT22;40172;53.022;7.012;2022-07-29T15:52:20;24.70;84.40
54260;DHT22;40172;53.022;7.012;2022-07-29T15:54:45;24.00;84.80
54260;DHT22;40172;53.022;7.012;2022-07-29T15:57:11;24.00;85.40
54260;DHT22;40172;53.022;7.012;2022-07-29T15:59:37;23.90;85.90
54260;DHT22;40172;53.022;7.012;2022-07-29T16:02:03;24.80;86.90
54260;DHT22;40172;53.022;7.012;2022-07-29T16:04:29;23.90;87.00
54260;DHT22;40172;53.022;7.012;2022-07-29T16:06:56;23.80;85.80
54260;DHT22;40172;53.022;7.012;2022-07-29T16:09:21;23.80;85.80
54260;DHT22;40172;53.022;7.012;2022-07-29T16:11:47;23.80;86.90
54260;DHT22;40172;53.022;7.012;2022-07-29T16:14:18;23.80;88.20
54260;DHT22;40172;53.022;7.012;2022-07-29T16:16:43;23.80;89.70
54260;DHT22;40172;53.022;7.012;2022-07-29T16:19:10;23.80;89.50
54260;DHT22;40172;53.022;7.012;2022-07-29T16:21:36;23.80;88.90
54260;DHT22;40172;53.022;7.012;2022-07-29T16:24:03;23.70;88.50
54260;DHT22;40172;53.022;7.012;2022-07-29T16:26:29;23.80;89.00